Time;durP1;ratioP1;P1;durP2;ratioP2;P2;SDS_P1;SDS_P2;PMS_P1;PMS_P2;Temp;Humidity;BMP_temperature;BMP_pressure;BME280_temperature;BME280_humidity;BME280_pressure;Samples;Min_cycle;Max_cycle;Signal;HPM_P1;HPM_P2
2022/11/08 00:01:53;;;;;;;0.00;0.00;;;;;;;17.24;71.95;100906.78;2078643;28;20045;-64
2022/11/08 00:02:56;;;;;;;0.00;0.00;;;;;;;17.27;71.98;100906.00;2075458;28;20490;-64
2022/11/08 00:04:00;;;;;;;0.00;0.00;;;;;;;17.27;71.93;100906.78;2075655;28;20895;-64
2022/11/08 00:14:27;;;;;;;0.00;0.00;;;;;;;17.20;71.91;100893.13;2072141;28;20081;-64
2022/11/08 00:15:32;;;;;;;0.00;0.00;;;;;;;17.24;71.94;100896.66;2076268;28;20415;-65
2022/11/08 00:16:34;;;;;;;0.00;0.00;;;;;;;17.24;72.15;100896.66;2076616;28;20060;-65
2022/11/08 00:17:37;;;;;;;0.00;0.00;;;;;;;17.26;72.02;100907.19;2074635;28;20053;-64
2022/11/08 00:18:38;;;;;;;0.00;0.00;;;;;;;17.26;71.81;100905.25;2076430;28;20136;-64
2022/11/08 00:19:42;;;;;;;0.00;0.00;;;;;;;17.27;71.94;100895.09;2074404;28;20089;-64
2022/11/08 00:20:44;;;;;;;0.00;0.00;;;;;;;17.26;72.06;100894.31;2076902;28;20090;-64
2022/11/08 00:21:46;;;;;;;0.00;0.00;;;;;;;17.28;71.89;100896.66;2076499;28;20077;-64
2022/11/08 00:22:48;;;;;;;0.00;0.00;;;;;;;17.28;72.10;100893.94;2079188;28;20053;-64
2022/11/08 00:23:51;;;;;;;0.00;0.00;;;;;;;17.28;71.92;100897.44;2078616;28;20413;-64
2022/11/08 00:24:52;;;;;;;0.00;0.00;;;;;;;17.29;72.04;100898.22;2077695;28;20054;-64
2022/11/08 00:25:55;;;;;;;0.00;0.00;;;;;;;17.30;71.85;100897.06;2072128;28;20061;-65
2022/11/08 00:26:57;;;;;;;0.00;0.00;;;;;;;17.29;71.86;100890.03;2076175;28;20057;-64
2022/11/08 00:28:00;;;;;;;0.00;0.00;;;;;;;17.27;71.89;100890.41;2078021;28;20862;-65
2022/11/08 00:29:03;;;;;;;0.00;0.00;;;;;;;17.30;71.84;100883.44;2073681;28;20068;-64
2022/11/08 00:30:06;;;;;;;0.00;0.00;;;;;;;17.29;71.86;100895.50;2073514;28;20062;-64
2022/11/08 00:31:08;;;;;;;0.00;0.00;;;;;;;17.30;71.85;100888.88;2072333;28;20835;-64
2022/11/08 00:32:13;;;;;;;0.00;0.00;;;;;;;17.30;71.72;100884.19;2073479;28;20964;-64
2022/11/08 00:33:14;;;;;;;0.00;0.00;;;;;;;17.30;71.81;100897.06;2075494;28;20081;-64
2022/11/08 00:34:17;;;;;;;0.00;0.00;;;;;;;17.30;71.84;100889.66;2075121;28;20152;-64
2022/11/08 00:35:19;;;;;;;0.00;0.00;;;;;;;17.30;71.73;100889.66;2076887;28;20076;-64
2022/11/08 00:36:22;;;;;;;0.00;0.00;;;;;;;17.30;71.52;100877.97;2076314;28;20088;-64
2022/11/08 00:37:24;;;;;;;0.00;0.00;;;;;;;17.30;71.64;100884.19;2079129;28;20068;-64
2022/11/08 00:38:27;;;;;;;0.00;0.00;;;;;;;17.31;71.77;100876.78;2078738;28;20604;-64
2022/11/08 00:39:29;;;;;;;0.00;0.00;;;;;;;17.31;71.68;100879.53;2076157;28;20054;-64
2022/11/08 00:40:32;;;;;;;0.00;0.00;;;;;;;17.31;71.86;100879.53;2071934;28;20053;-64
2022/11/08 00:41:33;;;;;;;0.00;0.00;;;;;;;17.32;71.54;100875.63;2071861;28;20054;-64
2022/11/08 00:42:36;;;;;;;0.00;0.00;;;;;;;17.31;71.57;100876.78;2075115;28;20533;-63
2022/11/08 00:43:38;;;;;;;0.00;0.00;;;;;;;17.31;71.67;100880.31;2079190;28;20064;-65
2022/11/08 00:44:42;;;;;;;0.00;0.00;;;;;;;17.32;71.67;100878.34;2076433;28;20089;-65
2022/11/08 00:45:44;;;;;;;0.00;0.00;;;;;;;17.32;71.28;100867.44;2077675;28;20053;-64
2022/11/08 00:46:46;;;;;;;0.00;0.00;;;;;;;17.32;71.50;100883.81;2077011;28;20489;-64
2022/11/08 00:47:48;;;;;;;0.00;0.00;;;;;;;17.33;71.67;100874.47;2078054;28;20053;-64
2022/11/08 00:48:51;;;;;;;0.00;0.00;;;;;;;17.32;71.43;100876.41;2078023;28;20045;-65
2022/11/08 00:49:54;;;;;;;0.00;0.00;;;;;;;17.32;71.34;100870.16;2075095;28;20045;-65
2022/11/08 00:51:00;;;;;;;0.00;0.00;;;;;;;17.32;71.50;100876.41;2076547;28;20060;-65
2022/11/08 00:52:03;;;;;;;0.00;0.00;;;;;;;17.29;71.75;100866.25;2078856;28;20069;-65
2022/11/08 00:53:04;;;;;;;0.00;0.00;;;;;;;17.31;71.68;100866.66;2078730;28;20053;-64
2022/11/08 00:54:09;;;;;;;0.00;0.00;;;;;;;17.30;71.68;100867.81;2077660;28;20054;-64
2022/11/08 00:55:11;;;;;;;0.00;0.00;;;;;;;17.32;71.45;100875.63;2079309;28;20799;-65
2022/11/08 00:56:14;;;;;;;0.00;0.00;;;;;;;17.33;71.23;100877.19;2077606;28;20949;-65
2022/11/08 00:57:16;;;;;;;0.00;0.00;;;;;;;17.33;71.51;100877.19;2073957;28;20129;-64
2022/11/08 00:58:18;;;;;;;0.00;0.00;;;;;;;17.32;71.42;100873.69;2076084;28;20050;-65
2022/11/08 00:59:27;;;;;;;0.00;0.00;;;;;;;17.30;71.48;100878.72;2072506;28;20544;-65
2022/11/08 01:00:31;;;;;;;0.00;0.00;;;;;;;17.33;71.36;100871.75;2073798;28;20497;-65
2022/11/08 01:01:35;;;;;;;0.00;0.00;;;;;;;17.32;71.48;100876.41;2079099;28;20095;-65
2022/11/08 01:02:36;;;;;;;0.00;0.00;;;;;;;17.32;71.31;100870.16;2075086;28;20132;-65
2022/11/08 01:03:39;;;;;;;0.00;0.00;;;;;;;17.32;71.09;100872.88;2073707;28;20572;-65
2022/11/08 01:04:42;;;;;;;0.00;0.00;;;;;;;17.32;71.33;100861.97;2073060;28;20085;-65
2022/11/08 01:05:44;;;;;;;0.00;0.00;;;;;;;17.32;71.30;100870.16;2076002;28;20086;-65
2022/11/08 01:06:47;;;;;;;0.00;0.00;;;;;;;17.33;71.31;100863.56;2075617;28;20049;-65
2022/11/08 01:07:49;;;;;;;0.00;0.00;;;;;;;17.33;71.41;100871.75;2078423;28;20089;-65
2022/11/08 01:08:52;;;;;;;0.00;0.00;;;;;;;17.34;71.27;100876.03;2076048;28;20536;-65
2022/11/08 01:09:54;;;;;;;0.00;0.00;;;;;;;17.33;71.33;100874.47;2078781;28;20076;-65
2022/11/08 01:11:01;;;;;;;0.00;0.00;;;;;;;17.33;71.53;100863.56;2078541;28;20077;-65
2022/11/08 01:12:03;;;;;;;0.00;0.00;;;;;;;17.32;71.36;100870.16;2076370;28;20131;-65
2022/11/08 01:13:06;;;;;;;0.00;0.00;;;;;;;17.32;71.40;100865.50;2072538;28;20065;-65
2022/11/08 01:14:08;;;;;;;0.00;0.00;;;;;;;17.33;71.46;100863.56;2076571;28;20112;-64
2022/11/08 01:15:10;;;;;;;0.00;0.00;;;;;;;17.33;71.29;100867.03;2078742;28;20124;-65
2022/11/08 01:16:16;;;;;;;0.00;0.00;;;;;;;17.33;71.32;100869.00;2074227;28;20108;-65
2022/11/08 01:17:19;;;;;;;0.00;0.00;;;;;;;17.32;71.09;100864.69;2076763;28;20057;-65
2022/11/08 01:18:21;;;;;;;0.00;0.00;;;;;;;17.33;71.33;100871.75;2076988;28;20085;-65
2022/11/08 01:19:24;;;;;;;0.00;0.00;;;;;;;17.33;71.32;100864.31;2071844;28;20493;-65
2022/11/08 01:20:25;;;;;;;0.00;0.00;;;;;;;17.33;71.18;100869.00;2073166;28;20049;-65
2022/11/08 01:21:29;;;;;;;0.00;0.00;;;;;;;17.34;70.89;100867.84;2075781;28;20060;-65
2022/11/08 01:22:30;;;;;;;0.00;0.00;;;;;;;17.33;71.28;100871.75;2076052;28;20053;-65
2022/11/08 01:23:34;;;;;;;0.00;0.00;;;;;;;17.34;71.29;100862.38;2076235;28;20060;-65
2022/11/08 01:24:36;;;;;;;0.00;0.00;;;;;;;17.33;71.13;100869.00;2075664;28;20060;-65
2022/11/08 01:25:40;;;;;;;0.00;0.00;;;;;;;17.34;71.32;100876.03;2077543;28;20068;-65
2022/11/08 01:26:42;;;;;;;0.00;0.00;;;;;;;17.33;71.23;100874.47;2076241;28;20060;-65
2022/11/08 01:27:44;;;;;;;0.00;0.00;;;;;;;17.33;71.09;100869.00;2077732;28;20501;-65
2022/11/08 01:28:47;;;;;;;0.00;0.00;;;;;;;17.33;71.28;100866.28;2074794;28;20449;-65
2022/11/08 01:29:49;;;;;;;0.00;0.00;;;;;;;17.33;71.19;100866.28;2073354;28;20081;-65
2022/11/08 01:30:52;;;;;;;0.00;0.00;;;;;;;17.33;71.18;100867.03;2071621;28;20456;-65
2022/11/08 01:31:56;;;;;;;0.00;0.00;;;;;;;17.33;70.99;100864.31;2075056;28;20104;-65
2022/11/08 01:32:58;;;;;;;0.00;0.00;;;;;;;17.33;71.12;100871.75;2078306;28;20057;-65
2022/11/08 01:34:01;;;;;;;0.00;0.00;;;;;;;17.33;71.11;100861.59;2076082;28;20057;-65
2022/11/08 01:35:03;;;;;;;0.00;0.00;;;;;;;17.33;70.81;100866.28;2075379;28;20049;-65
2022/11/08 01:36:06;;;;;;;0.00;0.00;;;;;;;17.34;71.03;100873.28;2071424;28;20058;-65
2022/11/08 01:37:08;;;;;;;0.00;0.00;;;;;;;17.33;71.16;100871.75;2078088;28;20062;-64
2022/11/08 01:38:11;;;;;;;0.00;0.00;;;;;;;17.34;71.13;100870.56;2078105;28;20940;-64
2022/11/08 01:39:14;;;;;;;0.00;0.00;;;;;;;17.33;71.19;100866.28;2078107;28;20465;-65
2022/11/08 01:40:15;;;;;;;0.00;0.00;;;;;;;17.33;71.15;100872.50;2078289;28;20050;-65
2022/11/08 01:41:20;;;;;;;0.00;0.00;;;;;;;17.34;70.87;100862.38;2076205;28;20136;-65
2022/11/08 01:42:26;;;;;;;0.00;0.00;;;;;;;17.34;71.00;100870.56;2077079;28;20088;-65
2022/11/08 01:43:38;;;;;;;0.00;0.00;;;;;;;17.31;70.91;100863.16;2071484;28;20049;-65
2022/11/08 01:44:59;;;;;;;0.00;0.00;;;;;;;17.25;70.97;100859.25;2076384;28;20502;-65
2022/11/08 01:46:35;;;;;;;0.00;0.00;;;;;;;17.21;71.16;100852.97;2077644;28;20068;-65
2022/11/08 01:47:39;;;;;;;0.00;0.00;;;;;;;17.26;71.20;100858.06;2074000;28;20057;-65
2022/11/08 01:48:47;;;;;;;0.00;0.00;;;;;;;17.29;71.06;100862.75;2070908;28;20081;-65
2022/11/08 01:49:53;;;;;;;0.00;0.00;;;;;;;17.29;71.14;100854.56;2076801;28;20056;-65
2022/11/08 01:50:58;;;;;;;0.00;0.00;;;;;;;17.30;71.14;100858.88;2075392;28;20061;-65
2022/11/08 01:52:24;;;;;;;0.00;0.00;;;;;;;17.29;70.97;100854.56;2078448;28;20054;-64
2022/11/08 01:53:28;;;;;;;0.00;0.00;;;;;;;17.27;71.01;100845.97;2071656;28;20060;-65
2022/11/08 01:54:39;;;;;;;0.00;0.00;;;;;;;17.27;71.12;100845.97;2074823;28;20049;-65
2022/11/08 01:55:41;;;;;;;0.00;0.00;;;;;;;17.27;71.08;100845.97;2077024;28;20089;-64
2022/11/08 01:56:44;;;;;;;0.00;0.00;;;;;;;17.29;70.89;100844.44;2078795;28;20064;-65
2022/11/08 01:57:50;;;;;;;0.00;0.00;;;;;;;17.29;71.00;100847.16;2075875;28;20053;-65
2022/11/08 01:58:55;;;;;;;0.00;0.00;;;;;;;17.30;70.99;100845.22;2077604;28;20052;-65
2022/11/08 02:00:02;;;;;;;0.00;0.00;;;;;;;17.29;71.01;100841.69;2071688;28;20073;-65
2022/11/08 02:01:11;;;;;;;0.00;0.00;;;;;;;17.26;71.04;100833.50;2074046;28;20058;-65
2022/11/08 02:02:13;;;;;;;0.00;0.00;;;;;;;17.29;71.06;100843.66;2072063;28;20095;-65
2022/11/08 02:03:20;;;;;;;0.00;0.00;;;;;;;17.29;71.01;100835.47;2073112;28;20054;-65
2022/11/08 02:04:21;;;;;;;0.00;0.00;;;;;;;17.29;71.08;100832.72;2077879;28;20061;-65
2022/11/08 02:05:24;;;;;;;0.00;0.00;;;;;;;17.30;70.92;100834.31;2076172;28;20111;-65
2022/11/08 02:06:28;;;;;;;0.00;0.00;;;;;;;17.27;71.00;100827.66;2078895;28;20108;-65
2022/11/08 02:07:32;;;;;;;0.00;0.00;;;;;;;17.30;71.20;100831.59;2076267;28;20053;-65
2022/11/08 02:08:37;;;;;;;0.00;0.00;;;;;;;17.30;71.16;100839.75;2076423;28;20053;-65
2022/11/08 02:09:42;;;;;;;0.00;0.00;;;;;;;17.30;70.88;100834.31;2075964;28;20057;-65
2022/11/08 02:10:48;;;;;;;0.00;0.00;;;;;;;17.30;70.78;100828.84;2076861;28;20049;-65
2022/11/08 02:11:53;;;;;;;0.00;0.00;;;;;;;17.30;70.97;100826.13;2076715;28;20091;-65
2022/11/08 02:12:55;;;;;;;0.00;0.00;;;;;;;17.29;70.97;100833.50;2078777;28;20057;-65
2022/11/08 02:13:58;;;;;;;0.00;0.00;;;;;;;17.29;70.75;100819.88;2072173;28;20050;-65
2022/11/08 02:14:59;;;;;;;0.00;0.00;;;;;;;17.30;70.90;100823.41;2072686;28;20490;-64
2022/11/08 02:16:02;;;;;;;0.00;0.00;;;;;;;17.31;70.82;100830.41;2078786;28;20850;-65
2022/11/08 02:17:05;;;;;;;0.00;0.00;;;;;;;17.30;70.84;100832.34;2077046;28;20050;-65
2022/11/08 02:18:07;;;;;;;0.00;0.00;;;;;;;17.30;70.60;100826.88;2077351;28;20068;-65
2022/11/08 02:19:22;;;;;;;0.00;0.00;;;;;;;17.27;70.89;100811.28;2071159;28;20088;-65
2022/11/08 02:20:26;;;;;;;0.00;0.00;;;;;;;17.27;70.96;100810.50;2076980;28;20524;-65
2022/11/08 02:21:37;;;;;;;0.00;0.00;;;;;;;17.28;70.86;100820.25;2077141;28;21163;-65
2022/11/08 02:22:47;;;;;;;0.00;0.00;;;;;;;17.28;70.72;100815.56;2080289;28;20546;-65
2022/11/08 02:23:51;;;;;;;0.00;0.00;;;;;;;17.26;70.88;100809.72;2077722;28;20060;-65
2022/11/08 02:24:57;;;;;;;0.00;0.00;;;;;;;17.28;70.75;100815.56;2076035;28;20084;-65
2022/11/08 02:25:58;;;;;;;0.00;0.00;;;;;;;17.28;70.87;100814.81;2080299;28;20482;-65
2022/11/08 02:27:02;;;;;;;0.00;0.00;;;;;;;17.30;70.96;100809.75;2074199;28;20469;-65
2022/11/08 02:28:04;;;;;;;0.00;0.00;;;;;;;17.29;70.74;100819.09;2074425;28;20501;-65
2022/11/08 02:29:27;;;;;;;0.00;0.00;;;;;;;17.23;70.47;100807.00;2073421;28;20418;-64
2022/11/08 02:30:31;;;;;;;0.00;0.00;;;;;;;17.26;70.87;100807.00;2072626;28;20057;-65
2022/11/08 02:31:34;;;;;;;0.00;0.00;;;;;;;17.26;70.91;100801.53;2077007;28;20053;-65
2022/11/08 02:32:37;;;;;;;0.00;0.00;;;;;;;17.29;70.89;100808.16;2075979;28;20057;-65
2022/11/08 02:33:39;;;;;;;0.00;0.00;;;;;;;17.27;70.93;100807.75;2078620;28;20050;-65
2022/11/08 02:34:44;;;;;;;0.00;0.00;;;;;;;17.28;70.52;100806.63;2076549;28;20065;-65
2022/11/08 02:35:51;;;;;;;0.00;0.00;;;;;;;17.28;70.54;100804.66;2075193;28;20096;-64
2022/11/08 02:36:53;;;;;;;0.00;0.00;;;;;;;17.27;70.96;100810.50;2077352;28;20409;-65
2022/11/08 02:37:56;;;;;;;0.00;0.00;;;;;;;17.28;70.71;100798.44;2079277;28;20049;-64
2022/11/08 02:38:59;;;;;;;0.00;0.00;;;;;;;17.29;70.95;100799.97;2079853;28;20058;-64
2022/11/08 02:40:02;;;;;;;0.00;0.00;;;;;;;17.28;70.72;100798.44;2077195;28;20089;-64
2022/11/08 02:41:04;;;;;;;0.00;0.00;;;;;;;17.28;70.79;100801.16;2073139;28;20085;-65
2022/11/08 02:42:06;;;;;;;0.00;0.00;;;;;;;17.28;70.67;100810.09;2075066;28;20077;-65
2022/11/08 02:43:08;;;;;;;0.00;0.00;;;;;;;17.29;70.70;100799.97;2077667;28;20108;-65
2022/11/08 02:44:11;;;;;;;0.00;0.00;;;;;;;17.28;70.76;100796.47;2073328;28;20580;-65
2022/11/08 02:45:12;;;;;;;0.00;0.00;;;;;;;17.29;70.86;100808.16;2077795;28;20101;-64
2022/11/08 02:46:15;;;;;;;0.00;0.00;;;;;;;17.29;70.78;100799.97;2077400;28;20531;-65
2022/11/08 02:47:17;;;;;;;0.00;0.00;;;;;;;17.29;70.71;100799.97;2076805;28;20061;-65
2022/11/08 02:48:20;;;;;;;0.00;0.00;;;;;;;17.27;70.44;100796.84;2072471;28;20547;-65
2022/11/08 02:49:22;;;;;;;0.00;0.00;;;;;;;17.28;70.68;100799.19;2073382;28;20488;-65
2022/11/08 02:50:25;;;;;;;0.00;0.00;;;;;;;17.29;70.64;100797.25;2077502;28;20053;-65
2022/11/08 02:51:26;;;;;;;0.00;0.00;;;;;;;17.29;70.64;100797.25;2075823;28;20054;-64
2022/11/08 02:52:29;;;;;;;0.00;0.00;;;;;;;17.29;70.71;100803.50;2076451;28;20056;-65
2022/11/08 02:53:31;;;;;;;0.00;0.00;;;;;;;17.28;70.54;100799.19;2080071;28;20065;-65
2022/11/08 02:54:35;;;;;;;0.00;0.00;;;;;;;17.29;70.66;100808.97;2075559;28;20386;-65
2022/11/08 02:55:37;;;;;;;0.00;0.00;;;;;;;17.29;70.61;100797.25;2073015;28;20062;-64
2022/11/08 02:56:40;;;;;;;0.00;0.00;;;;;;;17.28;70.67;100795.69;2072547;28;20517;-65
2022/11/08 02:57:41;;;;;;;0.00;0.00;;;;;;;17.29;70.64;100802.72;2072185;28;20095;-65
2022/11/08 02:58:44;;;;;;;0.00;0.00;;;;;;;17.29;70.48;100799.97;2074613;28;20098;-65
2022/11/08 02:59:47;;;;;;;0.00;0.00;;;;;;;17.29;70.45;100799.97;2080096;28;20076;-65
2022/11/08 03:00:50;;;;;;;0.00;0.00;;;;;;;17.27;70.69;100792.19;2077038;28;20052;-65
2022/11/08 03:01:52;;;;;;;0.00;0.00;;;;;;;17.28;70.63;100793.72;2073205;28;20057;-65
2022/11/08 03:02:56;;;;;;;0.00;0.00;;;;;;;17.29;70.51;100805.44;2075789;28;20098;-64
2022/11/08 03:03:58;;;;;;;0.00;0.00;;;;;;;17.28;70.73;100810.09;2074632;28;20085;-65
2022/11/08 03:05:01;;;;;;;0.00;0.00;;;;;;;17.28;70.40;100798.44;2072893;28;20057;-65
2022/11/08 03:06:03;;;;;;;0.00;0.00;;;;;;;17.29;70.58;100799.97;2072541;28;20054;-65
2022/11/08 03:07:05;;;;;;;0.00;0.00;;;;;;;17.29;70.50;100797.25;2075781;28;20128;-64
2022/11/08 03:08:07;;;;;;;0.00;0.00;;;;;;;17.28;70.57;100801.91;2077467;28;20064;-65
2022/11/08 03:09:10;;;;;;;0.00;0.00;;;;;;;17.28;70.47;100804.66;2077202;28;20061;-65
2022/11/08 03:10:14;;;;;;;0.00;0.00;;;;;;;17.29;70.49;100797.25;2076978;28;20057;-65
2022/11/08 03:11:17;;;;;;;0.00;0.00;;;;;;;17.27;70.55;100805.81;2075878;28;20617;-65
2022/11/08 03:12:19;;;;;;;0.00;0.00;;;;;;;17.28;70.42;100803.88;2076981;28;20533;-64
2022/11/08 03:13:21;;;;;;;0.00;0.00;;;;;;;17.28;70.50;100799.19;2078086;28;20049;-65
2022/11/08 03:14:23;;;;;;;0.00;0.00;;;;;;;17.28;70.64;100792.97;2078989;28;20088;-65
2022/11/08 03:15:26;;;;;;;0.00;0.00;;;;;;;17.28;70.62;100799.19;2075909;28;20065;-65
2022/11/08 03:16:30;;;;;;;0.00;0.00;;;;;;;17.29;70.62;100799.97;2076758;28;20124;-65
2022/11/08 03:17:31;;;;;;;0.00;0.00;;;;;;;17.28;70.52;100817.53;2073423;28;20627;-65
2022/11/08 03:18:34;;;;;;;0.00;0.00;;;;;;;17.28;70.46;100807.38;2074062;28;20050;-65
2022/11/08 03:19:36;;;;;;;0.00;0.00;;;;;;;17.28;70.55;100792.97;2076592;28;20049;-65
2022/11/08 03:20:39;;;;;;;0.00;0.00;;;;;;;17.29;70.43;100797.25;2077868;28;20061;-65
2022/11/08 03:21:41;;;;;;;0.00;0.00;;;;;;;17.28;70.37;100798.44;2076432;28;20053;-65
2022/11/08 03:22:43;;;;;;;0.00;0.00;;;;;;;17.28;70.48;100798.44;2077127;28;20060;-65
2022/11/08 03:23:46;;;;;;;0.00;0.00;;;;;;;17.28;70.27;100795.69;2077513;28;20056;-65
2022/11/08 03:24:48;;;;;;;0.00;0.00;;;;;;;17.28;70.38;100795.69;2072192;28;20076;-65
2022/11/08 03:25:52;;;;;;;0.00;0.00;;;;;;;17.29;70.53;100795.31;2077087;28;20045;-65
2022/11/08 03:26:55;;;;;;;0.00;0.00;;;;;;;17.28;70.43;100796.47;2072468;28;20053;-65
2022/11/08 03:28:00;;;;;;;0.00;0.00;;;;;;;17.27;70.07;100792.19;2079597;28;20057;-65
2022/11/08 03:29:03;;;;;;;0.00;0.00;;;;;;;17.26;70.49;100790.63;2075490;28;20065;-65
2022/11/08 03:30:06;;;;;;;0.00;0.00;;;;;;;17.27;70.38;100794.91;2075610;28;20065;-65
2022/11/08 03:31:09;;;;;;;0.00;0.00;;;;;;;17.28;70.48;100792.97;2079835;28;20085;-65
2022/11/08 03:32:11;;;;;;;0.00;0.00;;;;;;;17.27;70.42;100794.13;2077444;28;20521;-65
2022/11/08 03:33:14;;;;;;;0.00;0.00;;;;;;;17.27;70.66;100785.94;2078727;28;20056;-65
2022/11/08 03:34:17;;;;;;;0.00;0.00;;;;;;;17.26;70.25;100787.91;2075321;28;20521;-65
2022/11/08 03:35:18;;;;;;;0.00;0.00;;;;;;;17.27;70.31;100780.47;2076794;28;20061;-66
2022/11/08 03:36:21;;;;;;;0.00;0.00;;;;;;;17.27;70.47;100780.47;2079145;28;20085;-65
2022/11/08 03:37:23;;;;;;;0.00;0.00;;;;;;;17.27;70.25;100784.00;2072241;28;20061;-65
2022/11/08 03:38:25;;;;;;;0.00;0.00;;;;;;;17.27;70.44;100781.28;2075299;28;20045;-65
2022/11/08 03:39:28;;;;;;;0.00;0.00;;;;;;;17.27;70.37;100785.94;2071575;28;20537;-64
2022/11/08 03:40:30;;;;;;;0.00;0.00;;;;;;;17.27;70.35;100791.38;2078696;28;20823;-65
2022/11/08 03:41:34;;;;;;;0.00;0.00;;;;;;;17.28;70.21;100782.06;2078441;28;20062;-64
2022/11/08 03:42:35;;;;;;;0.00;0.00;;;;;;;17.27;70.35;100785.94;2073579;28;20088;-64
2022/11/08 03:43:38;;;;;;;0.00;0.00;;;;;;;17.27;70.39;100777.75;2072289;28;20054;-64
2022/11/08 03:44:40;;;;;;;0.00;0.00;;;;;;;17.26;70.45;100779.72;2074369;28;20065;-65
2022/11/08 03:45:42;;;;;;;0.00;0.00;;;;;;;17.27;70.25;100780.47;2077961;28;20049;-64
2022/11/08 03:46:44;;;;;;;0.00;0.00;;;;;;;17.26;70.52;100774.25;2077395;28;20053;-64
2022/11/08 03:47:47;;;;;;;0.00;0.00;;;;;;;17.27;70.47;100777.75;2079255;28;20080;-65
2022/11/08 03:48:49;;;;;;;0.00;0.00;;;;;;;17.26;70.21;100774.25;2072063;28;20068;-65
2022/11/08 03:49:52;;;;;;;0.00;0.00;;;;;;;17.25;70.18;100780.09;2076990;28;20067;-64
2022/11/08 03:50:53;;;;;;;0.00;0.00;;;;;;;17.26;70.50;100774.25;2076292;28;20053;-64
2022/11/08 03:51:56;;;;;;;0.00;0.00;;;;;;;17.26;70.26;100768.81;2072188;28;20050;-64
2022/11/08 03:52:58;;;;;;;0.00;0.00;;;;;;;17.27;70.21;100769.56;2073747;28;20054;-64
2022/11/08 03:54:00;;;;;;;0.00;0.00;;;;;;;17.26;70.15;100768.00;2076322;28;20050;-64
2022/11/08 03:55:02;;;;;;;0.00;0.00;;;;;;;17.26;70.17;100768.81;2073264;28;20089;-64
2022/11/08 03:56:06;;;;;;;0.00;0.00;;;;;;;17.26;70.11;100762.56;2074205;28;20057;-64
2022/11/08 03:57:11;;;;;;;0.00;0.00;;;;;;;17.25;70.19;100761.00;2077254;28;20053;-64
2022/11/08 03:58:13;;;;;;;0.00;0.00;;;;;;;17.25;70.14;100764.50;2078103;28;20099;-64
2022/11/08 03:59:15;;;;;;;0.00;0.00;;;;;;;17.25;70.19;100767.22;2077221;28;20137;-64
2022/11/08 04:00:20;;;;;;;0.00;0.00;;;;;;;17.26;70.01;100757.09;2078509;28;20057;-64
2022/11/08 04:01:23;;;;;;;0.00;0.00;;;;;;;17.25;70.20;100752.81;2072218;28;20093;-64
2022/11/08 04:02:25;;;;;;;0.00;0.00;;;;;;;17.25;70.16;100750.09;2074343;28;20596;-64
2022/11/08 04:03:28;;;;;;;0.00;0.00;;;;;;;17.20;70.09;100745.00;2074211;28;20061;-64
2022/11/08 04:04:29;;;;;;;0.00;0.00;;;;;;;17.25;70.14;100752.81;2077441;28;20057;-64
2022/11/08 04:05:32;;;;;;;0.00;0.00;;;;;;;17.24;70.09;100751.25;2077103;28;20060;-64
2022/11/08 04:06:34;;;;;;;0.00;0.00;;;;;;;17.25;70.16;100756.31;2071772;28;20061;-64
2022/11/08 04:07:37;;;;;;;0.00;0.00;;;;;;;17.25;70.07;100753.56;2075229;28;20053;-64
2022/11/08 04:08:40;;;;;;;0.00;0.00;;;;;;;17.26;70.15;100751.63;2079340;28;20053;-64
2022/11/08 04:09:42;;;;;;;0.00;0.00;;;;;;;17.24;70.06;100746.56;2079650;28;20128;-64
2022/11/08 04:10:44;;;;;;;0.00;0.00;;;;;;;17.26;70.12;100748.91;2074597;28;20057;-64
2022/11/08 04:15:54;;;;;;;0.00;0.00;;;;;;;17.20;70.05;100753.19;2075581;28;20639;-64
2022/11/08 04:16:56;;;;;;;0.00;0.00;;;;;;;17.20;70.16;100743.06;2074663;28;20121;-64
2022/11/08 04:22:02;;;;;;;0.00;0.00;;;;;;;17.17;70.15;100743.06;2075595;28;20053;-64
2022/11/08 04:23:04;;;;;;;0.00;0.00;;;;;;;17.19;70.11;100740.69;2079126;28;20058;-64
2022/11/08 04:24:07;;;;;;;0.00;0.00;;;;;;;17.20;70.12;100743.06;2076358;28;20505;-64
2022/11/08 04:25:09;;;;;;;0.00;0.00;;;;;;;17.20;70.09;100737.59;2075517;28;20080;-64
2022/11/08 04:26:11;;;;;;;0.00;0.00;;;;;;;17.20;70.21;100736.81;2071964;28;20046;-64
2022/11/08 04:27:13;;;;;;;0.00;0.00;;;;;;;17.20;70.05;100736.81;2073625;28;20097;-64
2022/11/08 04:28:17;;;;;;;0.00;0.00;;;;;;;17.21;70.05;100738.38;2073719;28;20900;-64
2022/11/08 04:29:20;;;;;;;0.00;0.00;;;;;;;17.17;70.04;100743.06;2071933;28;20500;-64
2022/11/08 04:30:22;;;;;;;0.00;0.00;;;;;;;17.20;70.07;100736.81;2076745;28;20068;-64
2022/11/08 04:31:25;;;;;;;0.00;0.00;;;;;;;17.21;70.06;100738.38;2077638;28;20060;-64
2022/11/08 04:32:26;;;;;;;0.00;0.00;;;;;;;17.21;70.14;100741.09;2073880;28;20085;-64
2022/11/08 04:33:30;;;;;;;0.00;0.00;;;;;;;17.21;70.25;100732.91;2074022;28;20073;-64
2022/11/08 04:34:31;;;;;;;0.00;0.00;;;;;;;17.20;69.98;100736.81;2078627;28;20528;-64
2022/11/08 04:35:34;;;;;;;0.00;0.00;;;;;;;17.21;69.81;100741.09;2071707;28;20077;-64
2022/11/08 04:36:37;;;;;;;0.00;0.00;;;;;;;17.21;70.06;100741.09;2077187;28;20700;-65
2022/11/08 04:37:38;;;;;;;0.00;0.00;;;;;;;17.21;70.08;100733.69;2071880;28;20065;-64
2022/11/08 04:38:41;;;;;;;0.00;0.00;;;;;;;17.21;70.11;100733.69;2076789;28;20064;-64
2022/11/08 04:39:43;;;;;;;0.00;0.00;;;;;;;17.22;70.09;100726.31;2078536;28;20082;-64
2022/11/08 04:40:46;;;;;;;0.00;0.00;;;;;;;17.21;70.06;100727.47;2076795;28;20050;-64
2022/11/08 04:41:48;;;;;;;0.00;0.00;;;;;;;17.22;69.91;100729.03;2076949;28;20537;-64
2022/11/08 04:42:50;;;;;;;0.00;0.00;;;;;;;17.21;70.00;100722.78;2073723;28;20057;-65
2022/11/08 04:43:56;;;;;;;0.00;0.00;;;;;;;17.22;70.03;100720.84;2071815;28;20525;-64
2022/11/08 04:44:57;;;;;;;0.00;0.00;;;;;;;17.21;69.98;100732.91;2076398;28;20056;-64
2022/11/08 04:46:02;;;;;;;0.00;0.00;;;;;;;17.21;69.77;100722.78;2076988;28;20064;-64
2022/11/08 04:47:04;;;;;;;0.00;0.00;;;;;;;17.22;70.12;100731.75;2076096;28;20062;-64
2022/11/08 04:48:07;;;;;;;0.00;0.00;;;;;;;17.21;69.92;100713.81;2074414;28;20064;-64
2022/11/08 04:49:09;;;;;;;0.00;0.00;;;;;;;17.21;69.94;100711.88;2076988;28;20516;-64
2022/11/08 04:50:12;;;;;;;0.00;0.00;;;;;;;17.22;69.67;100716.16;2079209;28;20057;-64
2022/11/08 04:51:17;;;;;;;0.00;0.00;;;;;;;17.23;69.91;100714.22;2075132;28;20058;-64
2022/11/08 04:52:19;;;;;;;0.00;0.00;;;;;;;17.19;69.94;100713.41;2072216;28;20081;-64
2022/11/08 04:53:22;;;;;;;0.00;0.00;;;;;;;17.21;69.94;100705.63;2077263;28;20502;-64
2022/11/08 04:54:24;;;;;;;0.00;0.00;;;;;;;17.20;69.70;100707.59;2077210;28;20084;-64
2022/11/08 04:55:26;;;;;;;0.00;0.00;;;;;;;17.20;69.87;100709.53;2078234;28;20521;-64
2022/11/08 04:56:30;;;;;;;0.00;0.00;;;;;;;17.22;69.75;100707.22;2076318;28;20528;-64
2022/11/08 04:57:32;;;;;;;0.00;0.00;;;;;;;17.19;69.61;100703.28;2076206;28;20061;-64
2022/11/08 04:58:36;;;;;;;0.00;0.00;;;;;;;17.22;69.80;100713.44;2078530;28;20061;-64
2022/11/08 04:59:39;;;;;;;0.00;0.00;;;;;;;17.22;69.80;100707.22;2073681;28;20089;-65
2022/11/08 05:00:41;;;;;;;0.00;0.00;;;;;;;17.21;69.70;100711.09;2076718;28;20046;-65
2022/11/08 05:01:43;;;;;;;0.00;0.00;;;;;;;17.21;69.74;100705.63;2075505;28;20081;-65
2022/11/08 05:02:46;;;;;;;0.00;0.00;;;;;;;17.21;69.82;100705.63;2073857;28;20050;-65
2022/11/08 05:03:50;;;;;;;0.00;0.00;;;;;;;17.23;69.71;100697.84;2078325;28;20057;-65
2022/11/08 05:04:52;;;;;;;0.00;0.00;;;;;;;17.22;69.80;100704.47;2076879;28;20058;-65
2022/11/08 05:05:54;;;;;;;0.00;0.00;;;;;;;17.21;69.77;100700.16;2072034;28;20096;-65
2022/11/08 05:06:57;;;;;;;0.00;0.00;;;;;;;17.22;69.72;100707.22;2072985;28;20053;-65
2022/11/08 05:07:58;;;;;;;0.00;0.00;;;;;;;17.22;69.70;100701.75;2073831;28;20061;-65
2022/11/08 05:09:01;;;;;;;0.00;0.00;;;;;;;17.20;69.63;100687.72;2076035;28;20613;-64
2022/11/08 05:10:04;;;;;;;0.00;0.00;;;;;;;17.23;69.67;100692.38;2071333;28;20057;-65
2022/11/08 05:11:08;;;;;;;0.00;0.00;;;;;;;17.23;69.69;100692.38;2075380;28;20054;-64
2022/11/08 05:12:10;;;;;;;0.00;0.00;;;;;;;17.22;69.72;100699.03;2074830;28;20946;-65
2022/11/08 05:13:12;;;;;;;0.00;0.00;;;;;;;17.21;69.56;100700.16;2067988;28;20062;-65